TimeCDT,TemperatureF,Dew PointF,Humidity,Sea Level PressureIn,VisibilityMPH,Wind Direction,Wind SpeedMPH,Gust SpeedMPH,PrecipitationIn,Events,Conditions,WindDirDegrees,DateUTC
12:15 AM,64.4,57.0,77,30.00,10.0,ESE,9.2,16.1,N/A,,Clear,120,2013-03-30 05:15:00
12:35 AM,64.6,57.2,77,29.98,10.0,South,10.4,23.0,N/A,,Clear,180,2013-03-30 05:35:00
12:55 AM,64.6,56.7,75,29.99,10.0,SSW,11.5,25.3,N/A,,Clear,200,2013-03-30 05:55:00
1:15 AM,64.4,56.3,75,29.98,10.0,SSW,15.0,25.3,N/A,,Clear,200,2013-03-30 06:15:00
1:35 AM,63.5,55.8,76,29.97,10.0,South,13.8,23.0,N/A,Rain,Light Rain,190,2013-03-30 06:35:00
1:55 AM,64.4,52.3,65,29.93,10.0,South,25.3,34.5,N/A,Rain,Light Rain,180,2013-03-30 06:55:00
2:15 AM,65.1,50.9,60,29.94,10.0,SE,9.2,26.5,N/A,,Scattered Clouds,140,2013-03-30 07:15:00
2:35 AM,64.0,51.8,64,29.96,10.0,WSW,10.4,-,N/A,,Scattered Clouds,240,2013-03-30 07:35:00
2:55 AM,63.9,51.8,65,29.97,10.0,SSW,4.6,-,N/A,,Clear,210,2013-03-30 07:55:00
3:15 AM,63.0,52.2,68,29.98,10.0,West,10.4,-,N/A,,Scattered Clouds,260,2013-03-30 08:15:00
3:35 AM,62.6,53.2,71,29.97,10.0,WSW,8.1,-,N/A,,Clear,250,2013-03-30 08:35:00
3:55 AM,61.5,52.7,73,29.98,10.0,SSW,6.9,-,N/A,,Clear,200,2013-03-30 08:55:00
4:15 AM,61.0,52.7,74,29.98,10.0,Calm,Calm,-,N/A,,Clear,0,2013-03-30 09:15:00
4:35 AM,59.4,52.3,78,29.99,10.0,West,5.8,-,N/A,,Clear,270,2013-03-30 09:35:00
4:55 AM,58.3,52.2,80,30.00,10.0,SSW,8.1,-,N/A,,Clear,210,2013-03-30 09:55:00
5:15 AM,59.4,52.9,79,29.99,10.0,SE,5.8,-,N/A,,Clear,140,2013-03-30 10:15:00
5:35 AM,58.8,52.5,80,30.01,10.0,SW,3.5,-,N/A,,Clear,220,2013-03-30 10:35:00
5:55 AM,57.6,51.8,81,30.00,10.0,South,4.6,-,N/A,,Clear,180,2013-03-30 10:55:00
6:15 AM,57.2,51.8,82,30.01,10.0,Calm,Calm,-,N/A,,Clear,0,2013-03-30 11:15:00
6:35 AM,55.6,51.3,85,30.01,10.0,SE,4.6,-,N/A,,Clear,140,2013-03-30 11:35:00
10:55 AM,68.0,55.4,64,30.00,10.0,South,8.1,-,N/A,,Mostly Cloudy,170,2013-03-30 15:55:00
11:35 PM,65.1,57.6,76,29.90,10.0,Calm,Calm,-,N/A,,Clear,0,2013-03-31 04:35:00
11:55 PM,62.4,56.1,80,29.90,10.0,ENE,3.5,-,N/A,,Clear,60,2013-03-31 04:55:00